sensor_id;sensor_type;location;lat;lon;timestamp;temperature;humidity
59469;DHT22;45277;52.768;18.262;2024-03-25T00:01:15;4.10;99.90
59469;DHT22;45277;52.768;18.262;2024-03-25T00:02:46;4.20;99.90
59469;DHT22;45277;52.768;18.262;2024-03-25T00:04:17;4.20;99.90
59469;DHT22;45277;52.768;18.262;2024-03-25T00:05:49;4.30;99.90
59469;DHT22;45277;52.768;18.262;2024-03-25T00:07:20;4.30;99.90
59469;DHT22;45277;52.768;18.262;2024-03-25T00:08:51;4.30;99.90
59469;DHT22;45277;52.768;18.262;2024-03-25T00:10:23;4.30;99.90
59469;DHT22;45277;52.768;18.262;2024-03-25T00:11:54;4.30;99.90
59469;DHT22;45277;52.768;18.262;2024-03-25T00:13:25;4.40;99.90
59469;DHT22;45277;52.768;18.262;2024-03-25T00:14:56;4.40;99.90
59469;DHT22;45277;52.768;18.262;2024-03-25T00:16:27;4.40;99.90
59469;DHT22;45277;52.768;18.262;2024-03-25T00:17:59;4.40;99.90
59469;DHT22;45277;52.768;18.262;2024-03-25T00:19:30;4.30;99.90
59469;DHT22;45277;52.768;18.262;2024-03-25T00:21:02;4.40;99.90
59469;DHT22;45277;52.768;18.262;2024-03-25T00:22:33;4.40;99.90
59469;DHT22;45277;52.768;18.262;2024-03-25T00:24:05;4.40;99.90
59469;DHT22;45277;52.768;18.262;2024-03-25T00:25:36;4.30;99.90
59469;DHT22;45277;52.768;18.262;2024-03-25T00:27:08;4.30;99.90
59469;DHT22;45277;52.768;18.262;2024-03-25T00:28:39;4.30;99.90
59469;DHT22;45277;52.768;18.262;2024-03-25T00:30:11;4.30;99.90
59469;DHT22;45277;52.768;18.262;2024-03-25T00:31:43;4.30;99.90
59469;DHT22;45277;52.768;18.262;2024-03-25T00:33:14;4.30;99.90
59469;DHT22;45277;52.768;18.262;2024-03-25T00:34:47;4.30;99.90
59469;DHT22;45277;52.768;18.262;2024-03-25T00:36:19;4.30;99.90
59469;DHT22;45277;52.768;18.262;2024-03-25T00:37:50;4.30;99.90
59469;DHT22;45277;52.768;18.262;2024-03-25T00:39:21;4.40;99.90
59469;DHT22;45277;52.768;18.262;2024-03-25T00:40:55;4.40;99.90
59469;DHT22;45277;52.768;18.262;2024-03-25T00:42:26;4.40;99.90
59469;DHT22;45277;52.768;18.262;2024-03-25T00:43:57;4.40;99.90
59469;DHT22;45277;52.768;18.262;2024-03-25T00:45:29;4.40;99.90
59469;DHT22;45277;52.768;18.262;2024-03-25T00:47:01;4.30;99.90
59469;DHT22;45277;52.768;18.262;2024-03-25T00:48:33;4.30;99.90
59469;DHT22;45277;52.768;18.262;2024-03-25T00:50:05;4.30;99.90
59469;DHT22;45277;52.768;18.262;2024-03-25T00:51:37;4.30;99.90
59469;DHT22;45277;52.768;18.262;2024-03-25T00:53:08;4.30;99.90
59469;DHT22;45277;52.768;18.262;2024-03-25T00:54:39;4.30;99.90
59469;DHT22;45277;52.768;18.262;2024-03-25T00:56:10;4.30;99.90
59469;DHT22;45277;52.768;18.262;2024-03-25T00:57:42;4.20;99.90
59469;DHT22;45277;52.768;18.262;2024-03-25T00:59:14;4.20;99.90
59469;DHT22;45277;52.768;18.262;2024-03-25T01:00:46;4.20;99.90
59469;DHT22;45277;52.768;18.262;2024-03-25T01:02:17;4.30;99.90
59469;DHT22;45277;52.768;18.262;2024-03-25T01:03:48;4.30;99.90
59469;DHT22;45277;52.768;18.262;2024-03-25T01:05:19;4.30;99.90
59469;DHT22;45277;52.768;18.262;2024-03-25T01:06:51;4.30;99.90
59469;DHT22;45277;52.768;18.262;2024-03-25T01:08:22;4.30;99.90
59469;DHT22;45277;52.768;18.262;2024-03-25T01:09:53;4.30;99.90
59469;DHT22;45277;52.768;18.262;2024-03-25T01:11:24;4.30;99.90
59469;DHT22;45277;52.768;18.262;2024-03-25T01:12:56;4.20;99.90
59469;DHT22;45277;52.768;18.262;2024-03-25T01:14:28;4.20;99.90
59469;DHT22;45277;52.768;18.262;2024-03-25T01:15:59;4.30;99.90
59469;DHT22;45277;52.768;18.262;2024-03-25T01:17:30;4.30;99.90
59469;DHT22;45277;52.768;18.262;2024-03-25T01:19:02;4.20;99.90
59469;DHT22;45277;52.768;18.262;2024-03-25T01:20:33;4.30;99.90
59469;DHT22;45277;52.768;18.262;2024-03-25T01:22:05;4.30;99.90
59469;DHT22;45277;52.768;18.262;2024-03-25T01:23:36;4.20;99.90
59469;DHT22;45277;52.768;18.262;2024-03-25T01:25:07;4.20;99.90
59469;DHT22;45277;52.768;18.262;2024-03-25T01:26:39;4.20;99.90
59469;DHT22;45277;52.768;18.262;2024-03-25T01:28:10;4.10;99.90
59469;DHT22;45277;52.768;18.262;2024-03-25T01:29:41;4.10;99.90
59469;DHT22;45277;52.768;18.262;2024-03-25T01:31:13;4.10;99.90
59469;DHT22;45277;52.768;18.262;2024-03-25T01:32:45;4.10;99.90
59469;DHT22;45277;52.768;18.262;2024-03-25T01:34:19;4.10;99.90
59469;DHT22;45277;52.768;18.262;2024-03-25T01:35:50;4.00;99.90
59469;DHT22;45277;52.768;18.262;2024-03-25T01:37:22;4.00;99.90
59469;DHT22;45277;52.768;18.262;2024-03-25T01:38:53;4.00;99.90
59469;DHT22;45277;52.768;18.262;2024-03-25T01:40:24;4.10;99.90
59469;DHT22;45277;52.768;18.262;2024-03-25T01:41:55;4.10;99.90
59469;DHT22;45277;52.768;18.262;2024-03-25T01:43:27;4.20;99.90
59469;DHT22;45277;52.768;18.262;2024-03-25T01:44:58;4.20;99.90
59469;DHT22;45277;52.768;18.262;2024-03-25T01:46:29;4.20;99.90
59469;DHT22;45277;52.768;18.262;2024-03-25T01:48:08;4.10;99.90
59469;DHT22;45277;52.768;18.262;2024-03-25T01:49:41;4.10;99.90
59469;DHT22;45277;52.768;18.262;2024-03-25T01:51:14;4.10;99.90
59469;DHT22;45277;52.768;18.262;2024-03-25T01:52:47;4.10;99.90
59469;DHT22;45277;52.768;18.262;2024-03-25T01:54:19;4.00;99.90
59469;DHT22;45277;52.768;18.262;2024-03-25T01:55:53;4.00;99.90
59469;DHT22;45277;52.768;18.262;2024-03-25T01:57:26;4.00;99.90
59469;DHT22;45277;52.768;18.262;2024-03-25T01:58:58;4.00;99.90
59469;DHT22;45277;52.768;18.262;2024-03-25T02:00:30;4.00;99.90
59469;DHT22;45277;52.768;18.262;2024-03-25T02:02:03;4.00;99.90
59469;DHT22;45277;52.768;18.262;2024-03-25T02:03:34;4.00;99.90
59469;DHT22;45277;52.768;18.262;2024-03-25T02:05:06;4.00;99.90
59469;DHT22;45277;52.768;18.262;2024-03-25T02:06:37;4.10;99.90
59469;DHT22;45277;52.768;18.262;2024-03-25T02:08:10;4.10;99.90
59469;DHT22;45277;52.768;18.262;2024-03-25T02:09:42;4.10;99.90
59469;DHT22;45277;52.768;18.262;2024-03-25T02:11:14;4.10;99.90
59469;DHT22;45277;52.768;18.262;2024-03-25T02:12:46;4.20;99.90
59469;DHT22;45277;52.768;18.262;2024-03-25T02:14:17;4.20;99.90
59469;DHT22;45277;52.768;18.262;2024-03-25T02:15:49;4.20;99.90
59469;DHT22;45277;52.768;18.262;2024-03-25T02:17:22;4.30;99.90
59469;DHT22;45277;52.768;18.262;2024-03-25T02:18:53;4.30;99.90
59469;DHT22;45277;52.768;18.262;2024-03-25T02:20:25;4.30;99.90
59469;DHT22;45277;52.768;18.262;2024-03-25T02:21:57;4.40;99.90
59469;DHT22;45277;52.768;18.262;2024-03-25T02:23:28;4.40;99.90
59469;DHT22;45277;52.768;18.262;2024-03-25T02:25:00;4.40;99.90
59469;DHT22;45277;52.768;18.262;2024-03-25T02:26:32;4.40;99.90
59469;DHT22;45277;52.768;18.262;2024-03-25T02:28:04;4.40;99.90
59469;DHT22;45277;52.768;18.262;2024-03-25T02:29:35;4.40;99.90
59469;DHT22;45277;52.768;18.262;2024-03-25T02:31:06;4.40;99.90
59469;DHT22;45277;52.768;18.262;2024-03-25T02:32:38;4.40;99.90
59469;DHT22;45277;52.768;18.262;2024-03-25T02:34:09;4.40;99.90
59469;DHT22;45277;52.768;18.262;2024-03-25T02:35:42;4.40;99.90
59469;DHT22;45277;52.768;18.262;2024-03-25T02:37:15;4.40;99.90
59469;DHT22;45277;52.768;18.262;2024-03-25T02:38:46;4.40;99.90
59469;DHT22;45277;52.768;18.262;2024-03-25T02:40:19;4.40;99.90
59469;DHT22;45277;52.768;18.262;2024-03-25T02:41:50;4.40;99.90
59469;DHT22;45277;52.768;18.262;2024-03-25T02:43:21;4.40;99.90
59469;DHT22;45277;52.768;18.262;2024-03-25T02:44:56;4.40;99.90
59469;DHT22;45277;52.768;18.262;2024-03-25T02:46:28;4.30;99.90
59469;DHT22;45277;52.768;18.262;2024-03-25T02:48:00;4.30;99.90
59469;DHT22;45277;52.768;18.262;2024-03-25T02:49:31;4.30;99.90
59469;DHT22;45277;52.768;18.262;2024-03-25T02:51:02;4.30;99.90
59469;DHT22;45277;52.768;18.262;2024-03-25T02:52:33;4.30;99.90
59469;DHT22;45277;52.768;18.262;2024-03-25T02:54:05;4.20;99.90
59469;DHT22;45277;52.768;18.262;2024-03-25T02:55:36;4.30;99.90
59469;DHT22;45277;52.768;18.262;2024-03-25T02:57:07;4.20;99.90
59469;DHT22;45277;52.768;18.262;2024-03-25T02:58:39;4.20;99.90
59469;DHT22;45277;52.768;18.262;2024-03-25T03:00:10;4.20;99.90
59469;DHT22;45277;52.768;18.262;2024-03-25T03:01:41;4.20;99.90
59469;DHT22;45277;52.768;18.262;2024-03-25T03:03:13;4.20;99.90
59469;DHT22;45277;52.768;18.262;2024-03-25T03:04:44;4.20;99.90
59469;DHT22;45277;52.768;18.262;2024-03-25T03:06:15;4.20;99.90
59469;DHT22;45277;52.768;18.262;2024-03-25T03:07:47;4.20;99.90
59469;DHT22;45277;52.768;18.262;2024-03-25T03:09:18;4.30;99.90
59469;DHT22;45277;52.768;18.262;2024-03-25T03:10:49;4.30;99.90
59469;DHT22;45277;52.768;18.262;2024-03-25T03:12:20;4.30;99.90
59469;DHT22;45277;52.768;18.262;2024-03-25T03:13:52;4.30;99.90
59469;DHT22;45277;52.768;18.262;2024-03-25T03:15:23;4.30;99.90
59469;DHT22;45277;52.768;18.262;2024-03-25T03:16:54;4.30;99.90
59469;DHT22;45277;52.768;18.262;2024-03-25T03:18:29;4.30;99.90
59469;DHT22;45277;52.768;18.262;2024-03-25T03:20:01;4.30;99.90
59469;DHT22;45277;52.768;18.262;2024-03-25T03:21:32;4.30;99.90
59469;DHT22;45277;52.768;18.262;2024-03-25T03:23:04;4.30;99.90
59469;DHT22;45277;52.768;18.262;2024-03-25T03:24:35;4.30;99.90
59469;DHT22;45277;52.768;18.262;2024-03-25T03:26:06;4.30;99.90
59469;DHT22;45277;52.768;18.262;2024-03-25T03:27:38;4.30;99.90
59469;DHT22;45277;52.768;18.262;2024-03-25T03:29:09;4.30;99.90
59469;DHT22;45277;52.768;18.262;2024-03-25T03:30:41;4.30;99.90
59469;DHT22;45277;52.768;18.262;2024-03-25T03:32:12;4.30;99.90
59469;DHT22;45277;52.768;18.262;2024-03-25T03:33:43;4.30;99.90
59469;DHT22;45277;52.768;18.262;2024-03-25T03:35:14;4.30;99.90
59469;DHT22;45277;52.768;18.262;2024-03-25T03:36:46;4.30;99.90
59469;DHT22;45277;52.768;18.262;2024-03-25T03:38:17;4.40;99.90
59469;DHT22;45277;52.768;18.262;2024-03-25T03:39:48;4.40;99.90
59469;DHT22;45277;52.768;18.262;2024-03-25T03:41:19;4.30;99.90
59469;DHT22;45277;52.768;18.262;2024-03-25T03:42:50;4.30;99.90
59469;DHT22;45277;52.768;18.262;2024-03-25T03:44:22;4.30;99.90
59469;DHT22;45277;52.768;18.262;2024-03-25T03:45:53;4.30;99.90
59469;DHT22;45277;52.768;18.262;2024-03-25T03:47:24;4.30;99.90
59469;DHT22;45277;52.768;18.262;2024-03-25T03:48:56;4.30;99.90
59469;DHT22;45277;52.768;18.262;2024-03-25T03:50:27;4.40;99.90
59469;DHT22;45277;52.768;18.262;2024-03-25T03:51:58;4.40;99.90
59469;DHT22;45277;52.768;18.262;2024-03-25T03:53:29;4.40;99.90
59469;DHT22;45277;52.768;18.262;2024-03-25T03:55:00;4.40;99.90
59469;DHT22;45277;52.768;18.262;2024-03-25T03:56:31;4.40;99.90
59469;DHT22;45277;52.768;18.262;2024-03-25T03:58:03;4.40;99.90
59469;DHT22;45277;52.768;18.262;2024-03-25T03:59:34;4.40;99.90
59469;DHT22;45277;52.768;18.262;2024-03-25T04:01:17;4.40;99.90
59469;DHT22;45277;52.768;18.262;2024-03-25T04:02:49;4.40;99.90
59469;DHT22;45277;52.768;18.262;2024-03-25T04:04:20;4.40;99.90
59469;DHT22;45277;52.768;18.262;2024-03-25T04:05:51;4.40;99.90
59469;DHT22;45277;52.768;18.262;2024-03-25T04:07:23;4.40;99.90
59469;DHT22;45277;52.768;18.262;2024-03-25T04:08:57;4.40;99.90
59469;DHT22;45277;52.768;18.262;2024-03-25T04:10:28;4.40;99.90
59469;DHT22;45277;52.768;18.262;2024-03-25T04:12:00;4.40;99.90
59469;DHT22;45277;52.768;18.262;2024-03-25T04:13:35;4.40;99.90
59469;DHT22;45277;52.768;18.262;2024-03-25T04:15:06;4.40;99.90
59469;DHT22;45277;52.768;18.262;2024-03-25T04:16:38;4.40;99.90
59469;DHT22;45277;52.768;18.262;2024-03-25T04:18:09;4.40;99.90
59469;DHT22;45277;52.768;18.262;2024-03-25T04:19:40;4.40;99.90
59469;DHT22;45277;52.768;18.262;2024-03-25T04:21:12;4.40;99.90
59469;DHT22;45277;52.768;18.262;2024-03-25T04:22:46;4.50;99.90
59469;DHT22;45277;52.768;18.262;2024-03-25T04:24:18;4.40;99.90
59469;DHT22;45277;52.768;18.262;2024-03-25T04:25:50;4.50;99.90
59469;DHT22;45277;52.768;18.262;2024-03-25T04:27:22;4.50;99.90
59469;DHT22;45277;52.768;18.262;2024-03-25T04:28:55;4.50;99.90
59469;DHT22;45277;52.768;18.262;2024-03-25T04:30:26;4.50;99.90
59469;DHT22;45277;52.768;18.262;2024-03-25T04:31:58;4.50;99.90
59469;DHT22;45277;52.768;18.262;2024-03-25T04:33:29;4.50;99.90
59469;DHT22;45277;52.768;18.262;2024-03-25T04:35:00;4.50;99.90
59469;DHT22;45277;52.768;18.262;2024-03-25T04:36:32;4.50;99.90
59469;DHT22;45277;52.768;18.262;2024-03-25T04:38:03;4.60;99.90
59469;DHT22;45277;52.768;18.262;2024-03-25T04:39:34;4.50;99.90
59469;DHT22;45277;52.768;18.262;2024-03-25T04:41:06;4.60;99.90
59469;DHT22;45277;52.768;18.262;2024-03-25T04:42:37;4.50;99.90
59469;DHT22;45277;52.768;18.262;2024-03-25T04:44:08;4.50;99.90
59469;DHT22;45277;52.768;18.262;2024-03-25T04:45:40;4.50;99.90
59469;DHT22;45277;52.768;18.262;2024-03-25T04:47:11;4.60;99.90
59469;DHT22;45277;52.768;18.262;2024-03-25T04:48:43;4.60;99.90
59469;DHT22;45277;52.768;18.262;2024-03-25T04:50:15;4.50;99.90
59469;DHT22;45277;52.768;18.262;2024-03-25T04:51:46;4.60;99.90
59469;DHT22;45277;52.768;18.262;2024-03-25T04:53:18;4.60;99.90
59469;DHT22;45277;52.768;18.262;2024-03-25T04:54:50;4.60;99.90
59469;DHT22;45277;52.768;18.262;2024-03-25T04:56:21;4.60;99.90
59469;DHT22;45277;52.768;18.262;2024-03-25T04:57:52;4.60;99.90
59469;DHT22;45277;52.768;18.262;2024-03-25T04:59:23;4.60;99.90
59469;DHT22;45277;52.768;18.262;2024-03-25T05:00:54;4.70;99.90
59469;DHT22;45277;52.768;18.262;2024-03-25T05:02:26;4.70;99.90
59469;DHT22;45277;52.768;18.262;2024-03-25T05:03:57;4.70;99.90
59469;DHT22;45277;52.768;18.262;2024-03-25T05:05:28;4.70;99.90
59469;DHT22;45277;52.768;18.262;2024-03-25T05:07:00;4.70;99.90
59469;DHT22;45277;52.768;18.262;2024-03-25T05:08:32;4.70;99.90
59469;DHT22;45277;52.768;18.262;2024-03-25T05:10:03;4.70;99.90
59469;DHT22;45277;52.768;18.262;2024-03-25T05:11:35;4.70;99.90
59469;DHT22;45277;52.768;18.262;2024-03-25T05:13:06;4.70;99.90
59469;DHT22;45277;52.768;18.262;2024-03-25T05:14:37;4.70;99.90
59469;DHT22;45277;52.768;18.262;2024-03-25T05:16:09;4.70;99.90
59469;DHT22;45277;52.768;18.262;2024-03-25T05:17:40;4.70;99.90
59469;DHT22;45277;52.768;18.262;2024-03-25T05:19:11;4.70;99.90
59469;DHT22;45277;52.768;18.262;2024-03-25T05:20:42;4.70;99.90
59469;DHT22;45277;52.768;18.262;2024-03-25T05:22:13;4.70;99.90
59469;DHT22;45277;52.768;18.262;2024-03-25T05:23:45;4.70;99.90
59469;DHT22;45277;52.768;18.262;2024-03-25T05:25:16;4.80;99.90
59469;DHT22;45277;52.768;18.262;2024-03-25T05:26:47;4.80;99.90
59469;DHT22;45277;52.768;18.262;2024-03-25T05:28:18;4.80;99.90
59469;DHT22;45277;52.768;18.262;2024-03-25T05:29:50;4.90;99.90
59469;DHT22;45277;52.768;18.262;2024-03-25T05:31:21;4.90;99.90
59469;DHT22;45277;52.768;18.262;2024-03-25T05:32:52;4.90;99.90
59469;DHT22;45277;52.768;18.262;2024-03-25T05:34:25;5.00;99.90
59469;DHT22;45277;52.768;18.262;2024-03-25T05:35:56;5.00;99.90
59469;DHT22;45277;52.768;18.262;2024-03-25T05:37:27;5.00;99.90
59469;DHT22;45277;52.768;18.262;2024-03-25T05:38:59;5.10;99.90
59469;DHT22;45277;52.768;18.262;2024-03-25T05:40:30;5.20;99.90
59469;DHT22;45277;52.768;18.262;2024-03-25T05:42:02;5.20;99.90
59469;DHT22;45277;52.768;18.262;2024-03-25T05:43:33;5.20;99.90
59469;DHT22;45277;52.768;18.262;2024-03-25T05:45:05;5.20;99.90
59469;DHT22;45277;52.768;18.262;2024-03-25T05:46:37;5.20;99.90
59469;DHT22;45277;52.768;18.262;2024-03-25T05:48:09;5.20;99.90
59469;DHT22;45277;52.768;18.262;2024-03-25T05:49:40;5.20;99.90
59469;DHT22;45277;52.768;18.262;2024-03-25T05:51:11;5.20;99.90
59469;DHT22;45277;52.768;18.262;2024-03-25T05:52:43;5.30;99.90
59469;DHT22;45277;52.768;18.262;2024-03-25T05:54:14;5.20;99.90
59469;DHT22;45277;52.768;18.262;2024-03-25T05:55:45;5.30;99.90
59469;DHT22;45277;52.768;18.262;2024-03-25T05:57:16;5.20;99.90
59469;DHT22;45277;52.768;18.262;2024-03-25T05:58:48;5.30;99.90
59469;DHT22;45277;52.768;18.262;2024-03-25T06:00:19;5.30;99.90
59469;DHT22;45277;52.768;18.262;2024-03-25T06:01:51;5.30;99.90
59469;DHT22;45277;52.768;18.262;2024-03-25T06:03:23;5.30;99.90
59469;DHT22;45277;52.768;18.262;2024-03-25T06:04:54;5.30;99.90
59469;DHT22;45277;52.768;18.262;2024-03-25T06:06:27;5.30;99.90
59469;DHT22;45277;52.768;18.262;2024-03-25T06:07:58;5.30;99.90
59469;DHT22;45277;52.768;18.262;2024-03-25T06:09:29;5.30;99.90
59469;DHT22;45277;52.768;18.262;2024-03-25T06:11:01;5.30;99.90
59469;DHT22;45277;52.768;18.262;2024-03-25T06:12:33;5.40;99.90
59469;DHT22;45277;52.768;18.262;2024-03-25T06:14:04;5.40;99.90
59469;DHT22;45277;52.768;18.262;2024-03-25T06:15:35;5.40;99.90
59469;DHT22;45277;52.768;18.262;2024-03-25T06:17:06;5.40;99.90
59469;DHT22;45277;52.768;18.262;2024-03-25T06:18:37;5.50;99.90
59469;DHT22;45277;52.768;18.262;2024-03-25T06:20:09;5.50;99.90
59469;DHT22;45277;52.768;18.262;2024-03-25T06:21:41;5.50;99.90
59469;DHT22;45277;52.768;18.262;2024-03-25T06:23:29;5.60;99.90
59469;DHT22;45277;52.768;18.262;2024-03-25T06:25:01;5.60;99.90
59469;DHT22;45277;52.768;18.262;2024-03-25T06:26:32;5.70;99.90
59469;DHT22;45277;52.768;18.262;2024-03-25T06:28:04;5.70;99.90
59469;DHT22;45277;52.768;18.262;2024-03-25T06:29:35;5.70;99.90
59469;DHT22;45277;52.768;18.262;2024-03-25T06:31:07;5.70;99.90
59469;DHT22;45277;52.768;18.262;2024-03-25T06:32:56;5.80;99.90
59469;DHT22;45277;52.768;18.262;2024-03-25T06:34:46;5.80;99.90
59469;DHT22;45277;52.768;18.262;2024-03-25T06:36:18;5.90;99.90
59469;DHT22;45277;52.768;18.262;2024-03-25T06:37:49;5.90;99.90
59469;DHT22;45277;52.768;18.262;2024-03-25T06:39:20;6.00;99.90
59469;DHT22;45277;52.768;18.262;2024-03-25T06:40:52;5.90;99.90
59469;DHT22;45277;52.768;18.262;2024-03-25T06:42:25;6.00;99.90
59469;DHT22;45277;52.768;18.262;2024-03-25T06:43:57;6.10;99.90
59469;DHT22;45277;52.768;18.262;2024-03-25T06:45:28;6.10;99.90
59469;DHT22;45277;52.768;18.262;2024-03-25T06:47:00;6.10;99.90
59469;DHT22;45277;52.768;18.262;2024-03-25T06:48:31;6.10;99.90
59469;DHT22;45277;52.768;18.262;2024-03-25T06:50:03;6.10;99.90
59469;DHT22;45277;52.768;18.262;2024-03-25T06:51:34;6.10;99.90
59469;DHT22;45277;52.768;18.262;2024-03-25T06:53:05;6.20;99.90
59469;DHT22;45277;52.768;18.262;2024-03-25T06:54:37;6.20;99.90
59469;DHT22;45277;52.768;18.262;2024-03-25T06:56:08;6.30;99.90
59469;DHT22;45277;52.768;18.262;2024-03-25T06:57:39;6.30;99.90
59469;DHT22;45277;52.768;18.262;2024-03-25T06:59:11;6.30;99.90
59469;DHT22;45277;52.768;18.262;2024-03-25T07:00:42;6.30;99.90
59469;DHT22;45277;52.768;18.262;2024-03-25T07:02:14;6.30;99.90
59469;DHT22;45277;52.768;18.262;2024-03-25T07:03:45;6.40;99.90
59469;DHT22;45277;52.768;18.262;2024-03-25T07:05:18;6.40;99.90
59469;DHT22;45277;52.768;18.262;2024-03-25T07:06:49;6.30;99.90
59469;DHT22;45277;52.768;18.262;2024-03-25T07:08:21;6.30;99.90
59469;DHT22;45277;52.768;18.262;2024-03-25T07:09:52;6.40;99.90
59469;DHT22;45277;52.768;18.262;2024-03-25T07:11:24;6.40;99.90
59469;DHT22;45277;52.768;18.262;2024-03-25T07:12:56;6.40;99.90
59469;DHT22;45277;52.768;18.262;2024-03-25T07:14:27;6.30;99.90
59469;DHT22;45277;52.768;18.262;2024-03-25T07:15:58;6.30;99.90
59469;DHT22;45277;52.768;18.262;2024-03-25T07:17:30;6.30;99.90
59469;DHT22;45277;52.768;18.262;2024-03-25T07:19:01;6.20;99.90
59469;DHT22;45277;52.768;18.262;2024-03-25T07:20:32;6.20;99.90
59469;DHT22;45277;52.768;18.262;2024-03-25T07:22:03;6.20;99.90
59469;DHT22;45277;52.768;18.262;2024-03-25T07:23:35;6.20;99.90
59469;DHT22;45277;52.768;18.262;2024-03-25T07:25:06;6.20;99.90
59469;DHT22;45277;52.768;18.262;2024-03-25T07:26:38;6.20;99.90
59469;DHT22;45277;52.768;18.262;2024-03-25T07:28:09;6.30;99.90
59469;DHT22;45277;52.768;18.262;2024-03-25T07:29:40;6.30;99.90
59469;DHT22;45277;52.768;18.262;2024-03-25T07:31:11;6.40;99.90
59469;DHT22;45277;52.768;18.262;2024-03-25T07:32:42;6.40;99.90
59469;DHT22;45277;52.768;18.262;2024-03-25T07:34:16;6.40;99.90
59469;DHT22;45277;52.768;18.262;2024-03-25T07:35:47;6.50;99.90
59469;DHT22;45277;52.768;18.262;2024-03-25T07:37:18;6.50;99.90
59469;DHT22;45277;52.768;18.262;2024-03-25T07:38:49;6.60;99.90
59469;DHT22;45277;52.768;18.262;2024-03-25T07:40:22;6.60;99.90
59469;DHT22;45277;52.768;18.262;2024-03-25T07:41:53;6.60;99.90
59469;DHT22;45277;52.768;18.262;2024-03-25T07:43:24;6.80;99.90
59469;DHT22;45277;52.768;18.262;2024-03-25T07:44:56;6.80;99.90
59469;DHT22;45277;52.768;18.262;2024-03-25T07:46:27;6.70;99.90
59469;DHT22;45277;52.768;18.262;2024-03-25T07:47:58;6.70;99.90
59469;DHT22;45277;52.768;18.262;2024-03-25T07:49:31;6.60;99.90
59469;DHT22;45277;52.768;18.262;2024-03-25T07:51:02;6.60;99.90
59469;DHT22;45277;52.768;18.262;2024-03-25T07:52:33;6.60;99.90
59469;DHT22;45277;52.768;18.262;2024-03-25T07:54:07;6.50;99.90
59469;DHT22;45277;52.768;18.262;2024-03-25T07:55:41;6.50;99.90
59469;DHT22;45277;52.768;18.262;2024-03-25T07:57:12;6.50;99.90
59469;DHT22;45277;52.768;18.262;2024-03-25T07:58:43;6.40;99.90
59469;DHT22;45277;52.768;18.262;2024-03-25T08:00:15;6.40;99.90
59469;DHT22;45277;52.768;18.262;2024-03-25T08:01:46;6.30;99.90
59469;DHT22;45277;52.768;18.262;2024-03-25T08:03:18;6.30;99.90
59469;DHT22;45277;52.768;18.262;2024-03-25T08:04:49;6.30;99.90
59469;DHT22;45277;52.768;18.262;2024-03-25T08:06:20;6.30;99.90
59469;DHT22;45277;52.768;18.262;2024-03-25T08:07:52;6.30;99.90
59469;DHT22;45277;52.768;18.262;2024-03-25T08:09:24;6.40;99.90
59469;DHT22;45277;52.768;18.262;2024-03-25T08:10:55;6.40;99.90
59469;DHT22;45277;52.768;18.262;2024-03-25T08:12:27;6.50;99.90
59469;DHT22;45277;52.768;18.262;2024-03-25T08:13:58;6.60;99.90
59469;DHT22;45277;52.768;18.262;2024-03-25T08:15:29;6.60;99.90
59469;DHT22;45277;52.768;18.262;2024-03-25T08:17:01;6.70;99.90
59469;DHT22;45277;52.768;18.262;2024-03-25T08:18:33;6.70;99.90
59469;DHT22;45277;52.768;18.262;2024-03-25T08:20:05;6.80;99.90
59469;DHT22;45277;52.768;18.262;2024-03-25T08:21:37;6.80;99.90
59469;DHT22;45277;52.768;18.262;2024-03-25T08:23:08;6.80;99.90
59469;DHT22;45277;52.768;18.262;2024-03-25T08:24:39;6.90;99.90
59469;DHT22;45277;52.768;18.262;2024-03-25T08:26:11;6.90;99.90
59469;DHT22;45277;52.768;18.262;2024-03-25T08:27:42;7.00;99.90
59469;DHT22;45277;52.768;18.262;2024-03-25T08:29:13;7.00;99.90
59469;DHT22;45277;52.768;18.262;2024-03-25T08:30:45;7.00;99.90
59469;DHT22;45277;52.768;18.262;2024-03-25T08:32:16;7.00;99.90
59469;DHT22;45277;52.768;18.262;2024-03-25T08:33:47;7.00;99.90
59469;DHT22;45277;52.768;18.262;2024-03-25T08:35:18;7.00;99.90
59469;DHT22;45277;52.768;18.262;2024-03-25T08:36:50;7.00;99.90
59469;DHT22;45277;52.768;18.262;2024-03-25T08:38:21;7.00;99.90
59469;DHT22;45277;52.768;18.262;2024-03-25T08:39:52;7.10;99.90
59469;DHT22;45277;52.768;18.262;2024-03-25T08:41:23;7.20;99.90
59469;DHT22;45277;52.768;18.262;2024-03-25T08:42:54;7.20;99.90
59469;DHT22;45277;52.768;18.262;2024-03-25T08:44:26;7.40;99.90
59469;DHT22;45277;52.768;18.262;2024-03-25T08:45:57;7.50;99.90
59469;DHT22;45277;52.768;18.262;2024-03-25T08:47:29;7.70;99.90
59469;DHT22;45277;52.768;18.262;2024-03-25T08:49:00;7.90;99.90
59469;DHT22;45277;52.768;18.262;2024-03-25T08:50:31;7.90;99.90
59469;DHT22;45277;52.768;18.262;2024-03-25T08:52:03;7.90;99.90
59469;DHT22;45277;52.768;18.262;2024-03-25T08:53:34;8.00;99.90
59469;DHT22;45277;52.768;18.262;2024-03-25T08:55:06;8.10;99.90
59469;DHT22;45277;52.768;18.262;2024-03-25T08:56:37;8.10;99.90
59469;DHT22;45277;52.768;18.262;2024-03-25T08:58:09;8.10;99.90
59469;DHT22;45277;52.768;18.262;2024-03-25T08:59:40;8.10;99.90
59469;DHT22;45277;52.768;18.262;2024-03-25T09:01:12;8.00;99.90
59469;DHT22;45277;52.768;18.262;2024-03-25T09:02:46;7.80;99.90
59469;DHT22;45277;52.768;18.262;2024-03-25T09:04:17;7.80;99.90
59469;DHT22;45277;52.768;18.262;2024-03-25T09:05:48;7.80;99.90
59469;DHT22;45277;52.768;18.262;2024-03-25T09:07:20;7.80;99.90
59469;DHT22;45277;52.768;18.262;2024-03-25T09:08:51;7.80;99.90
59469;DHT22;45277;52.768;18.262;2024-03-25T09:10:43;7.70;99.90
59469;DHT22;45277;52.768;18.262;2024-03-25T09:12:33;7.70;99.90
59469;DHT22;45277;52.768;18.262;2024-03-25T09:14:05;7.60;99.90
59469;DHT22;45277;52.768;18.262;2024-03-25T09:15:37;7.50;99.90
59469;DHT22;45277;52.768;18.262;2024-03-25T09:17:08;7.40;99.90
59469;DHT22;45277;52.768;18.262;2024-03-25T09:18:39;7.40;99.90
59469;DHT22;45277;52.768;18.262;2024-03-25T09:20:11;7.40;99.90
59469;DHT22;45277;52.768;18.262;2024-03-25T09:21:47;7.50;99.90
59469;DHT22;45277;52.768;18.262;2024-03-25T09:23:19;7.60;99.90
59469;DHT22;45277;52.768;18.262;2024-03-25T09:24:50;7.70;99.90
59469;DHT22;45277;52.768;18.262;2024-03-25T09:26:21;7.90;99.90
59469;DHT22;45277;52.768;18.262;2024-03-25T09:27:52;8.20;99.90
59469;DHT22;45277;52.768;18.262;2024-03-25T09:29:24;8.40;99.90
59469;DHT22;45277;52.768;18.262;2024-03-25T09:30:56;8.70;99.90
59469;DHT22;45277;52.768;18.262;2024-03-25T09:32:27;9.00;99.90
59469;DHT22;45277;52.768;18.262;2024-03-25T09:33:58;9.10;99.90
59469;DHT22;45277;52.768;18.262;2024-03-25T09:35:30;9.00;99.90
59469;DHT22;45277;52.768;18.262;2024-03-25T09:37:01;9.30;99.90
59469;DHT22;45277;52.768;18.262;2024-03-25T09:38:32;9.40;99.90
59469;DHT22;45277;52.768;18.262;2024-03-25T09:40:04;9.40;99.90